Tyndall Air Force Base Panama City US
ICAO: KPAM
IATA: PAM
Category: Large
Scheduled Services: No

Elevation: 17 ft
TransAlt. 18000 ft.

Airport Communications:
APP/DEP:119.1
ATIS:25.44
CLNC DEL:118.05
GND:121.9
PMSV METRO:29.062
COMD POST:38.13
PTD:139.9
TWR:133.95

KPAM Zoom In..

Runways:

(A) RW 13L length 10004 ft width 200 ft
ILS 111.50 / hdg 135

(B) RW 13R length 9135 ft width 150 ft
---- / hdg 135

(C) RW 31L length 9135 ft width 150 ft
---- / hdg 315

(D) RW 31R length 10004 ft width 200 ft
ILS 110.10 / hdg 315

Location; KPAM
Day. 11 / Time. 11.56 Zulu
* Altimeter: 30.02
* Temperature: 27° c. 80.6°f.
* Wind from: 340° Speed 03 kn.
Dewpoint: 26° c.
Visibility: 10 Statute Miles.
Clouds: Clear (automated report).

KPAM 111156Z AUTO 34003KT 10SM CLR 27/26 A3002 RMK AO2 SLP169 60020 70030 T02700255 10287 20256 53008 $

Going to: --> -->


Wind From 340°
Speed 03 kn.

 
 
jpsmedia worldairports.se 2020   terms of use